Weather reports worldwide

Advertisment
Katesbridge, United Kingdom (99014): temperature & dewpoint: 14.10.2018 15:00:00 - 20.10.2018 15:00:00 (BST)Katesbridge, United Kingdom (99014): wind speed: 14.10.2018 15:00:00 - 20.10.2018 15:00:00 (BST)Katesbridge, United Kingdom (99014): wind direction: 14.10.2018 15:00:00 - 20.10.2018 15:00:00 (BST)Katesbridge, United Kingdom (99014): sunshine duration: 14.10.2018 15:00:00 - 20.10.2018 15:00:00 (BST)Katesbridge, United Kingdom (99014): precipitation: 14.10.2018 15:00:00 - 20.10.2018 15:00:00 (BST)
Date & Time tt [°C] td [°C] ff [km/h] ff [kn] dd sd [min] rr [mm]
20.10.2018 15:00:00 - - - - - - -
20.10.2018 14:00:00 13,9 11,9 8 4 WSW 0 0,0
20.10.2018 13:00:00 13,3 11,7 11 6 WSW 0 0,0
20.10.2018 12:00:00 12,8 11,1 15 8 WSW 0 0,0
20.10.2018 11:00:00 13,1 11,3 15 8 WSW 0 0,0
20.10.2018 10:00:00 12,9 11,2 9 5 WSW 0 0,0
20.10.2018 09:00:00 12,7 11,1 11 6 SW 0 0,0
20.10.2018 08:00:00 12,3 10,9 11 6 SW 0 0,0
20.10.2018 07:00:00 12,1 11,1 9 5 SW 0 0,0
20.10.2018 06:00:00 11,8 11,0 8 4 SW 0 0,0
20.10.2018 05:00:00 12,0 10,7 5 3 SW 0 0,0
20.10.2018 04:00:00 11,8 10,4 4 2 S 0 0,0
20.10.2018 03:00:00 11,6 9,9 2 1 ESE 0 0,0
20.10.2018 02:00:00 12,0 10,1 5 3 S 0 0,0
20.10.2018 01:00:00 12,1 10,1 8 4 SW - 0,0
20.10.2018 00:00:00 12,3 10,7 5 3 S 0 0,0
19.10.2018 23:00:00 12,4 10,8 5 3 SW 0 0,0
19.10.2018 22:00:00 12,3 10,7 5 3 SSW 0 0,0
19.10.2018 21:00:00 12,2 10,7 8 4 SW 0 0,0
19.10.2018 20:00:00 12,2 10,7 8 4 SSW 0 0,0
19.10.2018 19:00:00 12,1 10,5 5 3 W 0 0,0
19.10.2018 18:00:00 12,2 10,5 4 2 SW 0 0,0
19.10.2018 17:00:00 12,4 10,5 9 5 SW 0 0,0
19.10.2018 16:00:00 13,4 10,7 11 6 WSW 12 0,0
19.10.2018 15:00:00 12,5 9,8 11 6 SW 0 0,0
19.10.2018 14:00:00 12,0 8,9 9 5 WSW 0 0,0
19.10.2018 13:00:00 12,1 8,6 15 8 WSW 6 0,0
19.10.2018 12:00:00 10,9 7,8 13 7 SW 0 0,0
19.10.2018 11:00:00 10,8 7,8 15 8 WSW 0 0,0
19.10.2018 10:00:00 9,6 7,2 13 7 SW 0 0,2
19.10.2018 09:00:00 8,7 6,7 8 4 WSW 0 0,0
19.10.2018 08:00:00 8,5 5,8 8 4 SW 0 0,0
19.10.2018 07:00:00 8,9 6,0 13 7 SW 0 0,0
19.10.2018 06:00:00 9,0 5,6 5 3 SW 0 0,0
19.10.2018 05:00:00 8,3 4,9 5 3 S 0 0,0
19.10.2018 04:00:00 5,7 3,5 4 2 SSE 0 0,0
19.10.2018 03:00:00 8,2 4,7 11 6 SW 0 0,0
19.10.2018 02:00:00 8,3 5,2 9 5 SSE 0 0,0
19.10.2018 01:00:00 8,7 6,2 8 4 S - 0,0
19.10.2018 00:00:00 5,9 5,1 8 4 SE 0 0,0
18.10.2018 23:00:00 4,4 4,0 4 2 SE 0 0,0
18.10.2018 22:00:00 3,5 3,4 5 3 SE 0 0,0
18.10.2018 21:00:00 0,6 -0,3 4 2 E 0 0,0
18.10.2018 20:00:00 1,5 -0,1 2 1 E 0 0,0
18.10.2018 19:00:00 4,0 1,0 4 2 SE 0 0,0
18.10.2018 18:00:00 8,5 3,4 4 2 S 30 0,0
18.10.2018 17:00:00 11,1 2,8 9 5 SSW 60 0,0
18.10.2018 16:00:00 11,8 3,2 11 6 SSW 60 0,0
18.10.2018 15:00:00 12,8 4,9 9 5 SSW 60 0,0
18.10.2018 14:00:00 11,2 4,4 5 3 WSW 24 0,0
18.10.2018 13:00:00 12,4 4,1 4 2 SW 60 0,0
18.10.2018 12:00:00 10,4 6,2 4 2 SSW 60 0,0
18.10.2018 11:00:00 8,5 6,5 2 1 S 60 0,0
18.10.2018 10:00:00 2,7 2,6 2 1 NE 48 0,0
18.10.2018 09:00:00 -1,6 -1,8 2 1 S 30 0,0
18.10.2018 08:00:00 -3,9 -4,6 2 1 S 0 0,0
18.10.2018 07:00:00 -3,5 -4,1 2 1 NNE 0 0,0
18.10.2018 06:00:00 -3,5 -4,2 2 1 NNE 0 0,0
18.10.2018 05:00:00 -3,2 -3,9 0 0 N 0 0,0
18.10.2018 04:00:00 -2,9 -3,5 0 0 N 0 0,0
18.10.2018 03:00:00 -2,6 -3,1 0 0 N 0 0,0
18.10.2018 02:00:00 -2,5 -3,0 2 1 NNE 0 0,0
18.10.2018 01:00:00 -2,0 -2,4 2 1 NE - 0,0
18.10.2018 00:00:00 -1,5 -2,1 0 0 N 0 0,0
17.10.2018 23:00:00 -1,2 -1,8 2 1 NNE 0 0,0
17.10.2018 22:00:00 -0,6 -1,5 2 1 E 0 0,0
17.10.2018 21:00:00 0,7 -0,6 2 1 E 0 0,0
17.10.2018 20:00:00 2,3 0,4 0 0 N 0 0,0
17.10.2018 19:00:00 5,8 2,3 2 1 N 0 0,0
17.10.2018 18:00:00 10,6 4,7 4 2 NNW 12 0,0
17.10.2018 17:00:00 12,1 3,7 8 4 NNW 60 0,0
17.10.2018 16:00:00 13,3 4,1 8 4 NW 24 0,0
17.10.2018 15:00:00 11,8 5,1 8 4 N 36 0,0
17.10.2018 14:00:00 11,4 4,9 5 3 NNW 30 0,0
17.10.2018 13:00:00 12,4 5,9 11 6 WNW 48 0,0
17.10.2018 12:00:00 12,0 6,0 9 5 NW 48 0,0
17.10.2018 11:00:00 10,5 8,2 9 5 WNW 54 0,0
17.10.2018 10:00:00 9,4 7,8 4 2 NNW 24 0,0
17.10.2018 09:00:00 9,5 8,5 9 5 WNW 0 0,0
17.10.2018 08:00:00 9,1 8,6 8 4 WSW 0 0,0
17.10.2018 07:00:00 9,3 8,7 5 3 SSW 0 0,0
17.10.2018 06:00:00 9,2 8,7 8 4 SSW 0 0,0
17.10.2018 05:00:00 8,7 8,5 5 3 S 0 0,0
17.10.2018 04:00:00 6,8 6,6 2 1 SSW 0 0,0
17.10.2018 03:00:00 4,8 4,4 2 1 W 0 0,0
17.10.2018 02:00:00 7,3 6,8 4 2 W 0 0,0
17.10.2018 01:00:00 8,1 8,0 2 1 NE - 0,0
17.10.2018 00:00:00 5,8 5,7 4 2 NE 0 0,0
16.10.2018 23:00:00 3,6 2,9 2 1 SE 0 0,0
16.10.2018 22:00:00 5,8 5,1 2 1 ESE 0 0,0
16.10.2018 21:00:00 5,9 4,8 4 2 S 0 0,0
16.10.2018 20:00:00 9,6 7,2 4 2 SW 0 0,0
16.10.2018 19:00:00 10,3 6,2 4 2 SW 0 0,0
16.10.2018 18:00:00 13,1 9,6 9 5 WSW 30 0,0
16.10.2018 17:00:00 13,8 10,8 13 7 SW 42 0,0
16.10.2018 16:00:00 15,3 12,1 16 9 WSW 12 0,0
16.10.2018 15:00:00 13,8 11,4 16 9 SW 0 0,0
16.10.2018 14:00:00 12,7 11,0 11 6 SSW 0 0,0
16.10.2018 13:00:00 12,1 10,2 15 8 SSW 0 0,0
16.10.2018 12:00:00 12,0 9,4 18 10 SSW 0 0,0
16.10.2018 11:00:00 11,1 9,0 15 8 S 0 0,0
16.10.2018 10:00:00 11,5 7,4 21 11 SW 36 0,0
16.10.2018 09:00:00 9,9 7,2 13 7 S 6 0,0
16.10.2018 08:00:00 9,4 6,8 11 6 S 0 0,0
16.10.2018 07:00:00 9,8 7,8 11 6 SSW 0 0,0
16.10.2018 06:00:00 10,4 8,1 9 5 S 0 0,0
16.10.2018 05:00:00 10,6 8,3 9 5 SSW 0 0,0
16.10.2018 04:00:00 11,1 9,0 11 6 S 0 0,0
16.10.2018 03:00:00 10,6 8,9 8 4 S 0 0,0
16.10.2018 02:00:00 9,4 7,8 8 4 SSE 0 0,0
16.10.2018 01:00:00 6,9 6,3 5 3 ESE - 0,0
16.10.2018 00:00:00 7,9 5,8 8 4 SE 0 0,0
15.10.2018 23:00:00 7,2 5,0 8 4 SSE 0 0,0
15.10.2018 22:00:00 5,9 5,8 9 5 SE 0 0,0
15.10.2018 21:00:00 2,5 1,9 8 4 SE 0 0,0
15.10.2018 20:00:00 3,9 1,8 4 2 ESE 0 0,0
15.10.2018 19:00:00 7,2 4,9 5 3 SE 0 0,0
15.10.2018 18:00:00 10,0 6,3 5 3 SSE 54 0,0
15.10.2018 17:00:00 11,2 6,4 9 5 SE 60 0,0
15.10.2018 16:00:00 12,6 6,1 11 6 SE 60 0,0
15.10.2018 15:00:00 13,3 4,2 9 5 SE 60 0,0
15.10.2018 14:00:00 13,6 4,7 4 2 ENE 60 0,0
15.10.2018 13:00:00 13,4 4,9 2 1 W 60 0,0
15.10.2018 12:00:00 12,0 4,7 4 2 NNW 60 0,0
15.10.2018 11:00:00 10,7 7,2 2 1 SSW 60 0,0
15.10.2018 10:00:00 6,1 6,0 0 0 N 48 0,0
15.10.2018 09:00:00 0,3 -0,2 0 0 N 0 0,0
15.10.2018 08:00:00 1,1 0,5 0 0 N 0 0,0
15.10.2018 07:00:00 2,3 1,9 2 1 ESE 0 0,0
15.10.2018 06:00:00 3,1 2,7 0 0 N 0 0,0
15.10.2018 05:00:00 2,8 2,5 4 2 ESE 0 0,0
15.10.2018 04:00:00 2,5 2,2 2 1 E 0 0,0
15.10.2018 03:00:00 2,2 2,0 0 0 N 0 0,0
15.10.2018 02:00:00 1,3 1,0 0 0 N 0 0,0
15.10.2018 01:00:00 0,8 0,5 0 0 N - 0,0
15.10.2018 00:00:00 0,3 0,2 0 0 N 0 0,0
14.10.2018 23:00:00 -0,1 -0,6 2 1 NE 0 0,0
14.10.2018 22:00:00 0,4 -0,4 0 0 N 0 0,0
14.10.2018 21:00:00 1,1 0,1 2 1 NNE 0 0,0
14.10.2018 20:00:00 2,5 0,7 0 0 N 0 0,0
14.10.2018 19:00:00 5,8 2,4 2 1 ESE 0 0,0
14.10.2018 18:00:00 10,5 3,5 4 2 W 48 0,0
14.10.2018 17:00:00 12,4 3,4 4 2 W 60 0,0
14.10.2018 16:00:00 12,7 3,6 5 3 W 60 0,0
14.10.2018 15:00:00 12,0 3,1 5 3 SE 60 0,0

tt = temperature
td = dewpoint
ff = wind speed
dd = wind direction
sd = sunshine duration
rr = precipitation

Next stations